sensor_id;sensor_type;location;lat;lon;timestamp;P1;durP1;ratioP1;P2;durP2;ratioP2
50433;SDS011;36361;38.954;-9.002;2023-12-29T00:00:36;11.57;;;8.68;;
50433;SDS011;36361;38.954;-9.002;2023-12-29T00:01:37;13.77;;;9.00;;
50433;SDS011;36361;38.954;-9.002;2023-12-29T00:02:38;11.90;;;8.93;;
50433;SDS011;36361;38.954;-9.002;2023-12-29T00:03:39;13.57;;;9.23;;
50433;SDS011;36361;38.954;-9.002;2023-12-29T00:04:40;10.63;;;8.70;;
50433;SDS011;36361;38.954;-9.002;2023-12-29T00:05:40;12.90;;;9.25;;
50433;SDS011;36361;38.954;-9.002;2023-12-29T00:06:41;12.13;;;8.30;;
50433;SDS011;36361;38.954;-9.002;2023-12-29T00:07:42;13.38;;;8.73;;
50433;SDS011;36361;38.954;-9.002;2023-12-29T00:08:43;10.75;;;8.40;;
50433;SDS011;36361;38.954;-9.002;2023-12-29T00:09:44;14.82;;;9.38;;
50433;SDS011;36361;38.954;-9.002;2023-12-29T00:10:44;12.65;;;8.45;;
50433;SDS011;36361;38.954;-9.002;2023-12-29T00:11:51;12.52;;;8.60;;
50433;SDS011;36361;38.954;-9.002;2023-12-29T00:12:52;12.57;;;8.75;;
50433;SDS011;36361;38.954;-9.002;2023-12-29T00:13:53;13.45;;;9.13;;
50433;SDS011;36361;38.954;-9.002;2023-12-29T00:14:54;12.60;;;9.27;;
50433;SDS011;36361;38.954;-9.002;2023-12-29T00:15:55;12.18;;;8.15;;
50433;SDS011;36361;38.954;-9.002;2023-12-29T00:16:56;12.00;;;8.63;;
50433;SDS011;36361;38.954;-9.002;2023-12-29T00:17:57;13.70;;;8.95;;
50433;SDS011;36361;38.954;-9.002;2023-12-29T00:18:58;13.15;;;8.38;;
50433;SDS011;36361;38.954;-9.002;2023-12-29T00:19:59;10.32;;;8.10;;
50433;SDS011;36361;38.954;-9.002;2023-12-29T00:20:59;13.82;;;8.40;;
50433;SDS011;36361;38.954;-9.002;2023-12-29T00:22:00;11.23;;;8.70;;
50433;SDS011;36361;38.954;-9.002;2023-12-29T00:23:03;11.23;;;8.30;;
50433;SDS011;36361;38.954;-9.002;2023-12-29T00:24:04;12.70;;;9.00;;
50433;SDS011;36361;38.954;-9.002;2023-12-29T00:25:05;10.23;;;7.90;;
50433;SDS011;36361;38.954;-9.002;2023-12-29T00:26:09;13.55;;;9.10;;
50433;SDS011;36361;38.954;-9.002;2023-12-29T00:27:11;12.57;;;8.83;;
50433;SDS011;36361;38.954;-9.002;2023-12-29T00:28:12;12.82;;;8.60;;
50433;SDS011;36361;38.954;-9.002;2023-12-29T00:29:14;14.10;;;9.13;;
50433;SDS011;36361;38.954;-9.002;2023-12-29T00:30:15;11.27;;;8.27;;
50433;SDS011;36361;38.954;-9.002;2023-12-29T00:31:16;9.75;;;7.72;;
50433;SDS011;36361;38.954;-9.002;2023-12-29T00:32:17;11.02;;;8.25;;
50433;SDS011;36361;38.954;-9.002;2023-12-29T00:33:18;11.38;;;8.60;;
50433;SDS011;36361;38.954;-9.002;2023-12-29T00:34:19;9.73;;;8.30;;
50433;SDS011;36361;38.954;-9.002;2023-12-29T00:35:19;11.93;;;8.30;;
50433;SDS011;36361;38.954;-9.002;2023-12-29T00:36:21;11.80;;;7.90;;
50433;SDS011;36361;38.954;-9.002;2023-12-29T00:37:21;11.40;;;8.38;;
50433;SDS011;36361;38.954;-9.002;2023-12-29T00:38:22;11.25;;;8.35;;
50433;SDS011;36361;38.954;-9.002;2023-12-29T00:39:23;11.33;;;8.70;;
50433;SDS011;36361;38.954;-9.002;2023-12-29T00:40:29;12.38;;;8.40;;
50433;SDS011;36361;38.954;-9.002;2023-12-29T00:41:29;10.30;;;8.68;;
50433;SDS011;36361;38.954;-9.002;2023-12-29T00:42:30;10.65;;;8.32;;
50433;SDS011;36361;38.954;-9.002;2023-12-29T00:43:31;9.40;;;8.05;;
50433;SDS011;36361;38.954;-9.002;2023-12-29T00:44:32;12.45;;;8.18;;
50433;SDS011;36361;38.954;-9.002;2023-12-29T00:45:33;9.85;;;8.00;;
50433;SDS011;36361;38.954;-9.002;2023-12-29T00:46:36;11.52;;;7.97;;
50433;SDS011;36361;38.954;-9.002;2023-12-29T00:47:37;13.60;;;8.32;;
50433;SDS011;36361;38.954;-9.002;2023-12-29T00:48:38;11.63;;;8.20;;
50433;SDS011;36361;38.954;-9.002;2023-12-29T00:49:39;10.48;;;7.40;;
50433;SDS011;36361;38.954;-9.002;2023-12-29T00:50:41;12.27;;;8.30;;
50433;SDS011;36361;38.954;-9.002;2023-12-29T00:51:43;9.75;;;7.47;;
50433;SDS011;36361;38.954;-9.002;2023-12-29T00:52:44;11.60;;;7.88;;
50433;SDS011;36361;38.954;-9.002;2023-12-29T00:53:45;13.32;;;7.45;;
50433;SDS011;36361;38.954;-9.002;2023-12-29T00:54:45;10.52;;;7.82;;
50433;SDS011;36361;38.954;-9.002;2023-12-29T00:55:46;13.00;;;8.15;;
50433;SDS011;36361;38.954;-9.002;2023-12-29T00:56:50;11.00;;;8.27;;
50433;SDS011;36361;38.954;-9.002;2023-12-29T00:57:51;11.52;;;7.28;;
50433;SDS011;36361;38.954;-9.002;2023-12-29T00:58:52;13.60;;;8.55;;
50433;SDS011;36361;38.954;-9.002;2023-12-29T00:59:53;13.50;;;8.07;;
50433;SDS011;36361;38.954;-9.002;2023-12-29T01:00:54;9.17;;;7.07;;
50433;SDS011;36361;38.954;-9.002;2023-12-29T01:01:55;13.90;;;7.60;;
50433;SDS011;36361;38.954;-9.002;2023-12-29T01:02:56;10.80;;;7.22;;
50433;SDS011;36361;38.954;-9.002;2023-12-29T01:03:57;10.77;;;7.80;;
50433;SDS011;36361;38.954;-9.002;2023-12-29T01:04:57;14.70;;;7.50;;
50433;SDS011;36361;38.954;-9.002;2023-12-29T01:05:59;11.03;;;7.40;;
50433;SDS011;36361;38.954;-9.002;2023-12-29T01:07:01;10.68;;;7.82;;
50433;SDS011;36361;38.954;-9.002;2023-12-29T01:08:01;10.50;;;7.73;;
50433;SDS011;36361;38.954;-9.002;2023-12-29T01:09:02;11.67;;;8.47;;
50433;SDS011;36361;38.954;-9.002;2023-12-29T01:10:03;11.52;;;7.65;;
50433;SDS011;36361;38.954;-9.002;2023-12-29T01:11:05;11.20;;;7.90;;
50433;SDS011;36361;38.954;-9.002;2023-12-29T01:12:05;11.95;;;8.00;;
50433;SDS011;36361;38.954;-9.002;2023-12-29T01:13:06;10.75;;;6.85;;
50433;SDS011;36361;38.954;-9.002;2023-12-29T01:14:07;10.30;;;7.13;;
50433;SDS011;36361;38.954;-9.002;2023-12-29T01:15:08;11.23;;;7.60;;
50433;SDS011;36361;38.954;-9.002;2023-12-29T01:16:09;10.50;;;7.28;;
50433;SDS011;36361;38.954;-9.002;2023-12-29T01:17:10;14.37;;;7.83;;
50433;SDS011;36361;38.954;-9.002;2023-12-29T01:18:11;9.70;;;7.32;;
50433;SDS011;36361;38.954;-9.002;2023-12-29T01:19:12;10.27;;;6.90;;
50433;SDS011;36361;38.954;-9.002;2023-12-29T01:20:13;12.85;;;7.90;;
50433;SDS011;36361;38.954;-9.002;2023-12-29T01:21:14;10.95;;;7.93;;
50433;SDS011;36361;38.954;-9.002;2023-12-29T01:22:15;10.07;;;7.00;;
50433;SDS011;36361;38.954;-9.002;2023-12-29T01:23:15;11.70;;;7.13;;
50433;SDS011;36361;38.954;-9.002;2023-12-29T01:24:17;12.93;;;7.63;;
50433;SDS011;36361;38.954;-9.002;2023-12-29T01:25:18;14.05;;;7.25;;
50433;SDS011;36361;38.954;-9.002;2023-12-29T01:26:19;10.60;;;7.10;;
50433;SDS011;36361;38.954;-9.002;2023-12-29T01:27:20;10.57;;;6.93;;
50433;SDS011;36361;38.954;-9.002;2023-12-29T01:28:20;10.68;;;6.60;;
50433;SDS011;36361;38.954;-9.002;2023-12-29T01:29:22;9.98;;;6.85;;
50433;SDS011;36361;38.954;-9.002;2023-12-29T01:30:23;10.27;;;7.93;;
50433;SDS011;36361;38.954;-9.002;2023-12-29T01:31:23;10.37;;;7.30;;
50433;SDS011;36361;38.954;-9.002;2023-12-29T01:32:28;9.23;;;7.03;;
50433;SDS011;36361;38.954;-9.002;2023-12-29T01:33:29;10.60;;;7.72;;
50433;SDS011;36361;38.954;-9.002;2023-12-29T01:34:30;11.13;;;7.40;;
50433;SDS011;36361;38.954;-9.002;2023-12-29T01:35:32;11.45;;;7.35;;
50433;SDS011;36361;38.954;-9.002;2023-12-29T01:36:33;13.70;;;7.80;;
50433;SDS011;36361;38.954;-9.002;2023-12-29T01:37:34;10.40;;;6.95;;
50433;SDS011;36361;38.954;-9.002;2023-12-29T01:38:35;10.73;;;7.57;;
50433;SDS011;36361;38.954;-9.002;2023-12-29T01:39:35;10.13;;;6.87;;
50433;SDS011;36361;38.954;-9.002;2023-12-29T01:40:45;12.15;;;8.05;;
50433;SDS011;36361;38.954;-9.002;2023-12-29T01:41:47;10.70;;;7.87;;
50433;SDS011;36361;38.954;-9.002;2023-12-29T01:42:48;10.13;;;7.93;;
50433;SDS011;36361;38.954;-9.002;2023-12-29T01:45:02;12.03;;;8.53;;
50433;SDS011;36361;38.954;-9.002;2023-12-29T01:46:03;14.83;;;9.27;;
50433;SDS011;36361;38.954;-9.002;2023-12-29T01:47:06;12.63;;;9.10;;
50433;SDS011;36361;38.954;-9.002;2023-12-29T01:49:15;12.07;;;8.20;;
50433;SDS011;36361;38.954;-9.002;2023-12-29T01:50:18;9.70;;;7.47;;
50433;SDS011;36361;38.954;-9.002;2023-12-29T01:51:24;12.67;;;8.67;;
50433;SDS011;36361;38.954;-9.002;2023-12-29T01:52:27;14.65;;;9.63;;
50433;SDS011;36361;38.954;-9.002;2023-12-29T01:53:28;12.27;;;9.60;;
50433;SDS011;36361;38.954;-9.002;2023-12-29T01:54:30;10.73;;;9.03;;
50433;SDS011;36361;38.954;-9.002;2023-12-29T01:55:35;12.23;;;8.57;;
50433;SDS011;36361;38.954;-9.002;2023-12-29T01:56:37;14.32;;;8.85;;
50433;SDS011;36361;38.954;-9.002;2023-12-29T01:57:39;10.83;;;8.33;;
50433;SDS011;36361;38.954;-9.002;2023-12-29T01:58:40;12.20;;;8.90;;
50433;SDS011;36361;38.954;-9.002;2023-12-29T01:59:40;14.20;;;9.30;;
50433;SDS011;36361;38.954;-9.002;2023-12-29T02:00:42;13.70;;;9.50;;
50433;SDS011;36361;38.954;-9.002;2023-12-29T02:01:43;14.87;;;10.37;;
50433;SDS011;36361;38.954;-9.002;2023-12-29T02:02:46;13.43;;;10.63;;
50433;SDS011;36361;38.954;-9.002;2023-12-29T02:03:47;14.43;;;10.40;;
50433;SDS011;36361;38.954;-9.002;2023-12-29T02:04:48;16.03;;;11.73;;
50433;SDS011;36361;38.954;-9.002;2023-12-29T02:05:49;15.37;;;11.37;;
50433;SDS011;36361;38.954;-9.002;2023-12-29T02:06:51;15.93;;;11.67;;
50433;SDS011;36361;38.954;-9.002;2023-12-29T02:07:52;16.73;;;11.73;;
50433;SDS011;36361;38.954;-9.002;2023-12-29T02:08:53;18.33;;;11.13;;
50433;SDS011;36361;38.954;-9.002;2023-12-29T02:09:56;11.87;;;10.23;;
50433;SDS011;36361;38.954;-9.002;2023-12-29T02:10:58;15.73;;;11.30;;
50433;SDS011;36361;38.954;-9.002;2023-12-29T02:11:59;14.73;;;10.17;;
50433;SDS011;36361;38.954;-9.002;2023-12-29T02:13:01;17.00;;;11.43;;
50433;SDS011;36361;38.954;-9.002;2023-12-29T02:14:01;15.27;;;10.17;;
50433;SDS011;36361;38.954;-9.002;2023-12-29T02:15:03;18.53;;;10.90;;
50433;SDS011;36361;38.954;-9.002;2023-12-29T02:16:07;14.30;;;10.07;;
50433;SDS011;36361;38.954;-9.002;2023-12-29T02:18:28;15.47;;;11.03;;
50433;SDS011;36361;38.954;-9.002;2023-12-29T02:20:42;18.43;;;12.13;;
50433;SDS011;36361;38.954;-9.002;2023-12-29T02:21:44;21.03;;;13.80;;
50433;SDS011;36361;38.954;-9.002;2023-12-29T02:22:46;18.93;;;13.60;;
50433;SDS011;36361;38.954;-9.002;2023-12-29T02:23:47;16.20;;;12.87;;
50433;SDS011;36361;38.954;-9.002;2023-12-29T02:24:48;17.50;;;12.27;;
50433;SDS011;36361;38.954;-9.002;2023-12-29T02:25:49;15.97;;;12.00;;
50433;SDS011;36361;38.954;-9.002;2023-12-29T02:26:57;16.83;;;12.63;;
50433;SDS011;36361;38.954;-9.002;2023-12-29T02:28:23;15.30;;;11.30;;
50433;SDS011;36361;38.954;-9.002;2023-12-29T02:29:26;15.90;;;10.95;;
50433;SDS011;36361;38.954;-9.002;2023-12-29T02:31:36;15.87;;;10.67;;
50433;SDS011;36361;38.954;-9.002;2023-12-29T02:32:44;14.23;;;9.90;;
50433;SDS011;36361;38.954;-9.002;2023-12-29T02:33:47;15.67;;;10.17;;
50433;SDS011;36361;38.954;-9.002;2023-12-29T02:34:49;13.90;;;9.87;;
50433;SDS011;36361;38.954;-9.002;2023-12-29T02:35:52;13.83;;;11.00;;
50433;SDS011;36361;38.954;-9.002;2023-12-29T02:36:57;14.00;;;11.27;;
50433;SDS011;36361;38.954;-9.002;2023-12-29T02:37:59;18.60;;;12.00;;
50433;SDS011;36361;38.954;-9.002;2023-12-29T02:39:00;16.73;;;11.63;;
50433;SDS011;36361;38.954;-9.002;2023-12-29T02:40:01;18.73;;;12.30;;
50433;SDS011;36361;38.954;-9.002;2023-12-29T02:41:02;16.40;;;11.77;;
50433;SDS011;36361;38.954;-9.002;2023-12-29T02:42:04;15.63;;;11.87;;
50433;SDS011;36361;38.954;-9.002;2023-12-29T02:43:04;16.07;;;11.80;;
50433;SDS011;36361;38.954;-9.002;2023-12-29T02:44:05;18.30;;;11.93;;
50433;SDS011;36361;38.954;-9.002;2023-12-29T02:45:06;16.50;;;12.03;;
50433;SDS011;36361;38.954;-9.002;2023-12-29T02:46:07;15.40;;;11.17;;
50433;SDS011;36361;38.954;-9.002;2023-12-29T02:47:08;14.60;;;11.37;;
50433;SDS011;36361;38.954;-9.002;2023-12-29T02:48:09;14.47;;;11.23;;
50433;SDS011;36361;38.954;-9.002;2023-12-29T02:49:10;18.33;;;12.90;;
50433;SDS011;36361;38.954;-9.002;2023-12-29T02:50:13;18.33;;;12.53;;
50433;SDS011;36361;38.954;-9.002;2023-12-29T02:51:14;18.20;;;12.70;;
50433;SDS011;36361;38.954;-9.002;2023-12-29T02:52:14;21.57;;;13.73;;
50433;SDS011;36361;38.954;-9.002;2023-12-29T02:53:16;18.17;;;14.13;;
50433;SDS011;36361;38.954;-9.002;2023-12-29T02:54:17;18.30;;;13.33;;
50433;SDS011;36361;38.954;-9.002;2023-12-29T02:55:20;18.60;;;13.47;;
50433;SDS011;36361;38.954;-9.002;2023-12-29T02:56:21;18.40;;;13.13;;
50433;SDS011;36361;38.954;-9.002;2023-12-29T02:57:22;17.30;;;13.10;;
50433;SDS011;36361;38.954;-9.002;2023-12-29T02:58:23;21.13;;;14.57;;
50433;SDS011;36361;38.954;-9.002;2023-12-29T02:59:23;19.60;;;14.07;;
50433;SDS011;36361;38.954;-9.002;2023-12-29T03:00:24;20.13;;;14.87;;
50433;SDS011;36361;38.954;-9.002;2023-12-29T03:01:25;19.87;;;14.20;;
50433;SDS011;36361;38.954;-9.002;2023-12-29T03:02:29;18.67;;;14.00;;
50433;SDS011;36361;38.954;-9.002;2023-12-29T03:03:29;20.90;;;13.00;;
50433;SDS011;36361;38.954;-9.002;2023-12-29T03:04:30;18.73;;;13.93;;
50433;SDS011;36361;38.954;-9.002;2023-12-29T03:05:31;20.97;;;13.40;;
50433;SDS011;36361;38.954;-9.002;2023-12-29T03:06:32;17.17;;;12.80;;
50433;SDS011;36361;38.954;-9.002;2023-12-29T03:07:33;19.57;;;13.47;;
50433;SDS011;36361;38.954;-9.002;2023-12-29T03:08:33;15.37;;;12.33;;
50433;SDS011;36361;38.954;-9.002;2023-12-29T03:09:34;18.17;;;12.23;;
50433;SDS011;36361;38.954;-9.002;2023-12-29T03:10:35;16.70;;;11.77;;
50433;SDS011;36361;38.954;-9.002;2023-12-29T03:11:36;16.97;;;12.03;;
50433;SDS011;36361;38.954;-9.002;2023-12-29T03:12:36;17.13;;;11.60;;
50433;SDS011;36361;38.954;-9.002;2023-12-29T03:13:38;15.60;;;11.60;;
50433;SDS011;36361;38.954;-9.002;2023-12-29T03:14:39;17.57;;;11.90;;
50433;SDS011;36361;38.954;-9.002;2023-12-29T03:15:40;16.17;;;12.13;;
50433;SDS011;36361;38.954;-9.002;2023-12-29T03:16:40;18.87;;;12.37;;
50433;SDS011;36361;38.954;-9.002;2023-12-29T03:17:41;16.83;;;13.17;;
50433;SDS011;36361;38.954;-9.002;2023-12-29T03:18:42;18.30;;;12.53;;
50433;SDS011;36361;38.954;-9.002;2023-12-29T03:19:43;19.30;;;12.63;;
50433;SDS011;36361;38.954;-9.002;2023-12-29T03:20:44;18.43;;;12.67;;
50433;SDS011;36361;38.954;-9.002;2023-12-29T03:21:45;17.07;;;12.80;;
50433;SDS011;36361;38.954;-9.002;2023-12-29T03:22:45;18.10;;;12.87;;
50433;SDS011;36361;38.954;-9.002;2023-12-29T03:23:46;15.87;;;12.17;;
50433;SDS011;36361;38.954;-9.002;2023-12-29T03:24:48;16.80;;;12.40;;
50433;SDS011;36361;38.954;-9.002;2023-12-29T03:25:48;20.60;;;13.67;;
50433;SDS011;36361;38.954;-9.002;2023-12-29T03:26:49;19.70;;;13.70;;
50433;SDS011;36361;38.954;-9.002;2023-12-29T03:27:50;20.10;;;12.73;;
50433;SDS011;36361;38.954;-9.002;2023-12-29T03:28:51;17.97;;;14.30;;
50433;SDS011;36361;38.954;-9.002;2023-12-29T03:29:52;16.67;;;12.43;;
50433;SDS011;36361;38.954;-9.002;2023-12-29T03:30:55;21.17;;;14.33;;
50433;SDS011;36361;38.954;-9.002;2023-12-29T03:31:55;23.23;;;14.83;;
50433;SDS011;36361;38.954;-9.002;2023-12-29T03:32:56;18.47;;;13.87;;
50433;SDS011;36361;38.954;-9.002;2023-12-29T03:33:57;21.53;;;14.03;;
50433;SDS011;36361;38.954;-9.002;2023-12-29T03:34:58;22.63;;;14.87;;
50433;SDS011;36361;38.954;-9.002;2023-12-29T03:36:00;19.83;;;15.00;;
50433;SDS011;36361;38.954;-9.002;2023-12-29T03:37:01;19.63;;;13.33;;
50433;SDS011;36361;38.954;-9.002;2023-12-29T03:38:02;22.30;;;14.20;;
50433;SDS011;36361;38.954;-9.002;2023-12-29T03:39:03;20.23;;;13.83;;
50433;SDS011;36361;38.954;-9.002;2023-12-29T03:40:05;21.27;;;13.50;;
50433;SDS011;36361;38.954;-9.002;2023-12-29T03:41:06;15.73;;;12.00;;
50433;SDS011;36361;38.954;-9.002;2023-12-29T03:42:07;18.27;;;12.03;;
50433;SDS011;36361;38.954;-9.002;2023-12-29T03:43:08;19.70;;;12.23;;
50433;SDS011;36361;38.954;-9.002;2023-12-29T03:44:08;16.00;;;12.70;;
50433;SDS011;36361;38.954;-9.002;2023-12-29T03:45:09;16.17;;;11.70;;
50433;SDS011;36361;38.954;-9.002;2023-12-29T03:47:17;14.43;;;10.67;;
50433;SDS011;36361;38.954;-9.002;2023-12-29T03:48:18;13.93;;;9.83;;
50433;SDS011;36361;38.954;-9.002;2023-12-29T03:49:20;11.80;;;9.27;;
50433;SDS011;36361;38.954;-9.002;2023-12-29T03:50:20;17.13;;;10.60;;
50433;SDS011;36361;38.954;-9.002;2023-12-29T03:51:23;14.20;;;10.03;;
50433;SDS011;36361;38.954;-9.002;2023-12-29T03:52:24;17.17;;;10.77;;
50433;SDS011;36361;38.954;-9.002;2023-12-29T03:53:25;15.77;;;11.70;;
50433;SDS011;36361;38.954;-9.002;2023-12-29T03:54:26;16.83;;;11.83;;
50433;SDS011;36361;38.954;-9.002;2023-12-29T03:55:26;16.40;;;12.50;;
50433;SDS011;36361;38.954;-9.002;2023-12-29T03:56:28;17.40;;;12.03;;
50433;SDS011;36361;38.954;-9.002;2023-12-29T03:57:29;18.03;;;12.27;;
50433;SDS011;36361;38.954;-9.002;2023-12-29T03:58:30;17.97;;;11.93;;
50433;SDS011;36361;38.954;-9.002;2023-12-29T03:59:31;16.30;;;11.43;;
50433;SDS011;36361;38.954;-9.002;2023-12-29T04:00:31;17.50;;;13.07;;
50433;SDS011;36361;38.954;-9.002;2023-12-29T04:01:33;17.23;;;12.50;;
50433;SDS011;36361;38.954;-9.002;2023-12-29T04:02:34;15.63;;;11.60;;
50433;SDS011;36361;38.954;-9.002;2023-12-29T04:03:35;15.33;;;10.97;;
50433;SDS011;36361;38.954;-9.002;2023-12-29T04:04:37;15.37;;;11.43;;
50433;SDS011;36361;38.954;-9.002;2023-12-29T04:05:38;15.10;;;11.20;;
50433;SDS011;36361;38.954;-9.002;2023-12-29T04:06:39;16.23;;;11.87;;
50433;SDS011;36361;38.954;-9.002;2023-12-29T04:07:40;18.93;;;13.73;;
50433;SDS011;36361;38.954;-9.002;2023-12-29T04:08:41;18.63;;;13.87;;
50433;SDS011;36361;38.954;-9.002;2023-12-29T04:09:42;19.73;;;14.03;;
50433;SDS011;36361;38.954;-9.002;2023-12-29T04:10:43;17.67;;;14.20;;
50433;SDS011;36361;38.954;-9.002;2023-12-29T04:11:44;18.73;;;14.03;;
50433;SDS011;36361;38.954;-9.002;2023-12-29T04:12:44;17.67;;;14.33;;
50433;SDS011;36361;38.954;-9.002;2023-12-29T04:13:45;18.13;;;14.07;;
50433;SDS011;36361;38.954;-9.002;2023-12-29T04:14:46;20.03;;;14.13;;
50433;SDS011;36361;38.954;-9.002;2023-12-29T04:15:47;23.70;;;13.73;;
50433;SDS011;36361;38.954;-9.002;2023-12-29T04:16:48;21.30;;;14.80;;
50433;SDS011;36361;38.954;-9.002;2023-12-29T04:17:49;18.30;;;13.77;;
50433;SDS011;36361;38.954;-9.002;2023-12-29T04:18:49;20.23;;;13.73;;
50433;SDS011;36361;38.954;-9.002;2023-12-29T04:19:50;21.60;;;14.37;;
50433;SDS011;36361;38.954;-9.002;2023-12-29T04:20:51;16.27;;;12.77;;
50433;SDS011;36361;38.954;-9.002;2023-12-29T04:21:52;18.50;;;14.30;;
50433;SDS011;36361;38.954;-9.002;2023-12-29T04:22:54;19.17;;;13.77;;
50433;SDS011;36361;38.954;-9.002;2023-12-29T04:23:55;19.20;;;14.93;;
50433;SDS011;36361;38.954;-9.002;2023-12-29T04:24:57;19.37;;;14.43;;
50433;SDS011;36361;38.954;-9.002;2023-12-29T04:25:58;18.50;;;14.37;;
50433;SDS011;36361;38.954;-9.002;2023-12-29T04:26:59;20.37;;;14.73;;
50433;SDS011;36361;38.954;-9.002;2023-12-29T04:28:00;19.43;;;13.23;;
50433;SDS011;36361;38.954;-9.002;2023-12-29T04:29:01;19.77;;;14.67;;
50433;SDS011;36361;38.954;-9.002;2023-12-29T04:30:02;20.83;;;14.40;;
50433;SDS011;36361;38.954;-9.002;2023-12-29T04:31:04;21.70;;;14.80;;
50433;SDS011;36361;38.954;-9.002;2023-12-29T04:32:05;23.50;;;14.27;;
50433;SDS011;36361;38.954;-9.002;2023-12-29T04:33:06;19.33;;;13.77;;
50433;SDS011;36361;38.954;-9.002;2023-12-29T04:34:07;20.00;;;14.33;;
50433;SDS011;36361;38.954;-9.002;2023-12-29T04:35:08;22.20;;;14.90;;
50433;SDS011;36361;38.954;-9.002;2023-12-29T04:36:12;19.70;;;14.13;;
50433;SDS011;36361;38.954;-9.002;2023-12-29T04:37:13;18.97;;;13.77;;
50433;SDS011;36361;38.954;-9.002;2023-12-29T04:38:14;19.57;;;13.57;;
50433;SDS011;36361;38.954;-9.002;2023-12-29T04:39:17;21.30;;;14.17;;
50433;SDS011;36361;38.954;-9.002;2023-12-29T04:40:19;16.70;;;13.30;;
50433;SDS011;36361;38.954;-9.002;2023-12-29T04:41:20;21.63;;;13.67;;
50433;SDS011;36361;38.954;-9.002;2023-12-29T04:42:21;21.43;;;13.33;;
50433;SDS011;36361;38.954;-9.002;2023-12-29T04:43:22;21.97;;;14.23;;
50433;SDS011;36361;38.954;-9.002;2023-12-29T04:44:22;18.47;;;14.47;;
50433;SDS011;36361;38.954;-9.002;2023-12-29T04:45:23;19.00;;;14.47;;
50433;SDS011;36361;38.954;-9.002;2023-12-29T04:46:24;19.53;;;14.07;;
50433;SDS011;36361;38.954;-9.002;2023-12-29T04:47:25;20.40;;;14.10;;
50433;SDS011;36361;38.954;-9.002;2023-12-29T04:48:25;20.47;;;14.63;;
50433;SDS011;36361;38.954;-9.002;2023-12-29T04:49:27;20.10;;;13.70;;
50433;SDS011;36361;38.954;-9.002;2023-12-29T04:50:27;17.97;;;13.90;;
50433;SDS011;36361;38.954;-9.002;2023-12-29T04:51:28;19.83;;;14.77;;
50433;SDS011;36361;38.954;-9.002;2023-12-29T04:52:29;21.33;;;13.60;;
50433;SDS011;36361;38.954;-9.002;2023-12-29T04:53:30;19.57;;;14.57;;
50433;SDS011;36361;38.954;-9.002;2023-12-29T04:54:30;18.90;;;14.60;;
50433;SDS011;36361;38.954;-9.002;2023-12-29T04:55:31;18.47;;;14.03;;
50433;SDS011;36361;38.954;-9.002;2023-12-29T04:56:32;19.60;;;13.90;;
50433;SDS011;36361;38.954;-9.002;2023-12-29T04:57:33;18.93;;;13.80;;
50433;SDS011;36361;38.954;-9.002;2023-12-29T04:58:34;18.40;;;14.07;;
50433;SDS011;36361;38.954;-9.002;2023-12-29T04:59:34;18.23;;;14.07;;
50433;SDS011;36361;38.954;-9.002;2023-12-29T05:00:35;18.67;;;14.67;;
50433;SDS011;36361;38.954;-9.002;2023-12-29T05:01:36;18.20;;;14.30;;
50433;SDS011;36361;38.954;-9.002;2023-12-29T05:02:37;20.03;;;15.00;;
50433;SDS011;36361;38.954;-9.002;2023-12-29T05:03:39;19.40;;;14.97;;
50433;SDS011;36361;38.954;-9.002;2023-12-29T05:04:40;20.43;;;15.00;;
50433;SDS011;36361;38.954;-9.002;2023-12-29T05:05:40;19.23;;;14.63;;
50433;SDS011;36361;38.954;-9.002;2023-12-29T05:06:41;21.93;;;14.73;;
50433;SDS011;36361;38.954;-9.002;2023-12-29T05:07:42;21.27;;;15.07;;
50433;SDS011;36361;38.954;-9.002;2023-12-29T05:08:43;17.80;;;14.87;;
50433;SDS011;36361;38.954;-9.002;2023-12-29T05:09:44;20.67;;;15.33;;
50433;SDS011;36361;38.954;-9.002;2023-12-29T05:10:44;19.03;;;14.57;;
50433;SDS011;36361;38.954;-9.002;2023-12-29T05:11:45;18.50;;;14.57;;
50433;SDS011;36361;38.954;-9.002;2023-12-29T05:12:46;18.20;;;13.70;;
50433;SDS011;36361;38.954;-9.002;2023-12-29T05:13:47;19.93;;;14.60;;
50433;SDS011;36361;38.954;-9.002;2023-12-29T05:14:48;19.53;;;14.90;;
50433;SDS011;36361;38.954;-9.002;2023-12-29T05:15:49;18.57;;;15.13;;
50433;SDS011;36361;38.954;-9.002;2023-12-29T05:16:49;21.47;;;15.30;;
50433;SDS011;36361;38.954;-9.002;2023-12-29T05:17:50;19.60;;;15.17;;
50433;SDS011;36361;38.954;-9.002;2023-12-29T05:18:52;20.37;;;15.27;;
50433;SDS011;36361;38.954;-9.002;2023-12-29T05:19:53;20.77;;;14.97;;
50433;SDS011;36361;38.954;-9.002;2023-12-29T05:20:53;22.13;;;15.03;;
50433;SDS011;36361;38.954;-9.002;2023-12-29T05:21:54;21.87;;;15.00;;
50433;SDS011;36361;38.954;-9.002;2023-12-29T05:22:55;22.00;;;15.07;;
50433;SDS011;36361;38.954;-9.002;2023-12-29T05:23:56;18.80;;;13.53;;
50433;SDS011;36361;38.954;-9.002;2023-12-29T05:24:57;17.83;;;13.53;;
50433;SDS011;36361;38.954;-9.002;2023-12-29T05:26:00;16.30;;;12.77;;
50433;SDS011;36361;38.954;-9.002;2023-12-29T05:27:01;18.50;;;13.97;;
50433;SDS011;36361;38.954;-9.002;2023-12-29T05:28:01;18.87;;;13.93;;
50433;SDS011;36361;38.954;-9.002;2023-12-29T05:29:02;18.17;;;13.70;;
50433;SDS011;36361;38.954;-9.002;2023-12-29T05:30:04;19.13;;;14.67;;
50433;SDS011;36361;38.954;-9.002;2023-12-29T05:31:05;19.00;;;14.73;;
50433;SDS011;36361;38.954;-9.002;2023-12-29T05:32:06;18.57;;;14.23;;
50433;SDS011;36361;38.954;-9.002;2023-12-29T05:33:07;19.37;;;14.27;;
50433;SDS011;36361;38.954;-9.002;2023-12-29T05:34:07;17.63;;;13.90;;
50433;SDS011;36361;38.954;-9.002;2023-12-29T05:35:08;19.43;;;13.77;;
50433;SDS011;36361;38.954;-9.002;2023-12-29T05:36:10;22.50;;;14.10;;
50433;SDS011;36361;38.954;-9.002;2023-12-29T05:37:11;20.70;;;14.20;;
50433;SDS011;36361;38.954;-9.002;2023-12-29T05:38:12;20.77;;;13.87;;
50433;SDS011;36361;38.954;-9.002;2023-12-29T05:39:12;19.17;;;14.17;;
50433;SDS011;36361;38.954;-9.002;2023-12-29T05:40:13;19.60;;;13.93;;
50433;SDS011;36361;38.954;-9.002;2023-12-29T05:41:14;19.73;;;14.57;;
50433;SDS011;36361;38.954;-9.002;2023-12-29T05:42:15;19.77;;;13.97;;
50433;SDS011;36361;38.954;-9.002;2023-12-29T05:43:16;20.80;;;14.37;;
50433;SDS011;36361;38.954;-9.002;2023-12-29T05:44:17;18.53;;;13.20;;
50433;SDS011;36361;38.954;-9.002;2023-12-29T05:45:17;18.53;;;12.77;;
50433;SDS011;36361;38.954;-9.002;2023-12-29T05:46:18;18.63;;;14.10;;
50433;SDS011;36361;38.954;-9.002;2023-12-29T05:47:19;16.93;;;12.77;;
50433;SDS011;36361;38.954;-9.002;2023-12-29T05:48:20;19.10;;;14.00;;
50433;SDS011;36361;38.954;-9.002;2023-12-29T05:49:24;17.97;;;13.10;;
50433;SDS011;36361;38.954;-9.002;2023-12-29T05:50:26;17.93;;;12.73;;
50433;SDS011;36361;38.954;-9.002;2023-12-29T05:51:26;21.03;;;13.43;;
50433;SDS011;36361;38.954;-9.002;2023-12-29T05:52:27;19.13;;;13.07;;
50433;SDS011;36361;38.954;-9.002;2023-12-29T05:53:29;16.47;;;12.77;;
50433;SDS011;36361;38.954;-9.002;2023-12-29T05:54:29;17.27;;;13.07;;
50433;SDS011;36361;38.954;-9.002;2023-12-29T05:55:30;20.83;;;13.43;;
50433;SDS011;36361;38.954;-9.002;2023-12-29T05:56:31;19.13;;;13.80;;
50433;SDS011;36361;38.954;-9.002;2023-12-29T05:57:32;19.47;;;14.30;;
50433;SDS011;36361;38.954;-9.002;2023-12-29T05:58:32;17.20;;;12.50;;
50433;SDS011;36361;38.954;-9.002;2023-12-29T05:59:33;21.27;;;13.73;;
50433;SDS011;36361;38.954;-9.002;2023-12-29T06:00:34;19.13;;;12.77;;
50433;SDS011;36361;38.954;-9.002;2023-12-29T06:01:35;17.17;;;13.57;;
50433;SDS011;36361;38.954;-9.002;2023-12-29T06:02:36;19.53;;;13.10;;